sensor_id;sensor_type;location;lat;lon;timestamp;temperature;humidity
24384;DHT22;12504;52.870;8.798;2023-07-29T00:00:54;17.10;99.90
24384;DHT22;12504;52.870;8.798;2023-07-29T00:03:24;17.00;99.90
24384;DHT22;12504;52.870;8.798;2023-07-29T00:05:53;17.00;99.90
24384;DHT22;12504;52.870;8.798;2023-07-29T00:08:22;16.90;99.90
24384;DHT22;12504;52.870;8.798;2023-07-29T00:10:48;16.80;99.90
24384;DHT22;12504;52.870;8.798;2023-07-29T00:13:13;16.80;99.90
24384;DHT22;12504;52.870;8.798;2023-07-29T00:15:42;16.80;99.90
24384;DHT22;12504;52.870;8.798;2023-07-29T00:18:11;16.80;99.90
24384;DHT22;12504;52.870;8.798;2023-07-29T00:20:41;16.80;99.90
24384;DHT22;12504;52.870;8.798;2023-07-29T00:23:09;16.80;99.90
24384;DHT22;12504;52.870;8.798;2023-07-29T00:25:36;16.80;99.90
24384;DHT22;12504;52.870;8.798;2023-07-29T00:28:03;16.80;99.90
24384;DHT22;12504;52.870;8.798;2023-07-29T00:30:30;16.70;99.90
24384;DHT22;12504;52.870;8.798;2023-07-29T00:32:59;16.70;99.90
24384;DHT22;12504;52.870;8.798;2023-07-29T00:35:26;16.70;99.90
24384;DHT22;12504;52.870;8.798;2023-07-29T00:37:52;16.60;99.90
24384;DHT22;12504;52.870;8.798;2023-07-29T00:40:22;16.50;99.90
24384;DHT22;12504;52.870;8.798;2023-07-29T00:42:51;16.50;99.90
24384;DHT22;12504;52.870;8.798;2023-07-29T00:45:18;16.50;99.90
24384;DHT22;12504;52.870;8.798;2023-07-29T00:47:45;16.50;99.90
24384;DHT22;12504;52.870;8.798;2023-07-29T00:50:13;16.60;99.90
24384;DHT22;12504;52.870;8.798;2023-07-29T00:52:43;16.70;99.90
24384;DHT22;12504;52.870;8.798;2023-07-29T00:55:12;16.70;99.90
24384;DHT22;12504;52.870;8.798;2023-07-29T00:57:42;16.70;99.90
24384;DHT22;12504;52.870;8.798;2023-07-29T01:00:11;16.80;99.90
24384;DHT22;12504;52.870;8.798;2023-07-29T01:02:39;16.80;99.90
24384;DHT22;12504;52.870;8.798;2023-07-29T01:05:06;16.70;99.90
24384;DHT22;12504;52.870;8.798;2023-07-29T01:07:44;16.70;99.90
24384;DHT22;12504;52.870;8.798;2023-07-29T01:13:13;16.80;99.90
24384;DHT22;12504;52.870;8.798;2023-07-29T01:15:58;16.90;99.90
24384;DHT22;12504;52.870;8.798;2023-07-29T01:18:31;16.90;99.90
24384;DHT22;12504;52.870;8.798;2023-07-29T01:21:02;16.90;99.90
24384;DHT22;12504;52.870;8.798;2023-07-29T01:23:31;16.90;99.90
24384;DHT22;12504;52.870;8.798;2023-07-29T01:25:58;17.00;99.90
24384;DHT22;12504;52.870;8.798;2023-07-29T01:28:24;17.00;99.90
24384;DHT22;12504;52.870;8.798;2023-07-29T01:30:56;17.00;99.90
24384;DHT22;12504;52.870;8.798;2023-07-29T01:33:27;16.90;99.90
24384;DHT22;12504;52.870;8.798;2023-07-29T01:36:01;16.80;99.90
24384;DHT22;12504;52.870;8.798;2023-07-29T01:38:35;16.70;99.90
24384;DHT22;12504;52.870;8.798;2023-07-29T01:41:02;16.60;99.90
24384;DHT22;12504;52.870;8.798;2023-07-29T01:43:31;16.60;99.90
24384;DHT22;12504;52.870;8.798;2023-07-29T01:45:58;16.60;99.90
24384;DHT22;12504;52.870;8.798;2023-07-29T01:48:29;16.60;99.90
24384;DHT22;12504;52.870;8.798;2023-07-29T01:50:57;16.60;99.90
24384;DHT22;12504;52.870;8.798;2023-07-29T01:53:23;16.60;99.90
24384;DHT22;12504;52.870;8.798;2023-07-29T01:55:51;16.60;99.90
24384;DHT22;12504;52.870;8.798;2023-07-29T01:58:21;16.60;99.90
24384;DHT22;12504;52.870;8.798;2023-07-29T02:00:48;16.60;99.90
24384;DHT22;12504;52.870;8.798;2023-07-29T02:03:15;16.60;99.90
24384;DHT22;12504;52.870;8.798;2023-07-29T02:05:42;16.60;99.90
24384;DHT22;12504;52.870;8.798;2023-07-29T02:08:10;16.60;99.90
24384;DHT22;12504;52.870;8.798;2023-07-29T02:10:40;16.50;99.90
24384;DHT22;12504;52.870;8.798;2023-07-29T02:13:08;16.40;99.90
24384;DHT22;12504;52.870;8.798;2023-07-29T02:15:36;16.30;99.90
24384;DHT22;12504;52.870;8.798;2023-07-29T02:18:01;16.20;99.90
24384;DHT22;12504;52.870;8.798;2023-07-29T02:20:29;16.20;99.90
24384;DHT22;12504;52.870;8.798;2023-07-29T02:22:55;16.10;99.90
24384;DHT22;12504;52.870;8.798;2023-07-29T02:25:25;16.10;99.90
24384;DHT22;12504;52.870;8.798;2023-07-29T02:27:52;16.10;99.90
24384;DHT22;12504;52.870;8.798;2023-07-29T02:30:21;16.10;99.90
24384;DHT22;12504;52.870;8.798;2023-07-29T02:32:53;16.20;99.90
24384;DHT22;12504;52.870;8.798;2023-07-29T02:35:22;16.20;99.90
24384;DHT22;12504;52.870;8.798;2023-07-29T02:37:51;16.10;99.90
24384;DHT22;12504;52.870;8.798;2023-07-29T02:40:19;16.00;99.90
24384;DHT22;12504;52.870;8.798;2023-07-29T02:42:47;16.00;99.90
24384;DHT22;12504;52.870;8.798;2023-07-29T02:45:13;16.00;99.90
24384;DHT22;12504;52.870;8.798;2023-07-29T02:47:40;16.00;99.90
24384;DHT22;12504;52.870;8.798;2023-07-29T02:50:06;16.10;99.90
24384;DHT22;12504;52.870;8.798;2023-07-29T02:52:32;16.10;99.90
24384;DHT22;12504;52.870;8.798;2023-07-29T02:55:02;16.10;99.90
24384;DHT22;12504;52.870;8.798;2023-07-29T02:57:28;16.00;99.90
24384;DHT22;12504;52.870;8.798;2023-07-29T02:59:58;16.00;99.90
24384;DHT22;12504;52.870;8.798;2023-07-29T03:02:24;15.90;99.90
24384;DHT22;12504;52.870;8.798;2023-07-29T03:04:53;15.80;99.90
24384;DHT22;12504;52.870;8.798;2023-07-29T03:07:38;15.80;99.90
24384;DHT22;12504;52.870;8.798;2023-07-29T03:10:08;15.70;99.90
24384;DHT22;12504;52.870;8.798;2023-07-29T03:12:34;15.80;99.90
24384;DHT22;12504;52.870;8.798;2023-07-29T03:15:01;15.70;99.90
24384;DHT22;12504;52.870;8.798;2023-07-29T03:17:27;15.70;99.90
24384;DHT22;12504;52.870;8.798;2023-07-29T03:19:53;15.70;99.90
24384;DHT22;12504;52.870;8.798;2023-07-29T03:22:19;15.70;99.90
24384;DHT22;12504;52.870;8.798;2023-07-29T03:24:46;15.80;99.90
24384;DHT22;12504;52.870;8.798;2023-07-29T03:27:13;15.90;99.90
24384;DHT22;12504;52.870;8.798;2023-07-29T03:29:42;15.90;99.90
24384;DHT22;12504;52.870;8.798;2023-07-29T03:32:08;16.00;99.90
24384;DHT22;12504;52.870;8.798;2023-07-29T03:34:35;16.00;99.90
24384;DHT22;12504;52.870;8.798;2023-07-29T03:37:04;16.10;99.90
24384;DHT22;12504;52.870;8.798;2023-07-29T03:39:31;16.10;99.90
24384;DHT22;12504;52.870;8.798;2023-07-29T03:42:03;16.10;99.90
24384;DHT22;12504;52.870;8.798;2023-07-29T03:44:31;16.20;99.90
24384;DHT22;12504;52.870;8.798;2023-07-29T03:47:00;16.10;99.90
24384;DHT22;12504;52.870;8.798;2023-07-29T03:49:26;16.20;99.90
24384;DHT22;12504;52.870;8.798;2023-07-29T03:51:52;16.20;99.90
24384;DHT22;12504;52.870;8.798;2023-07-29T03:54:20;16.10;99.90
24384;DHT22;12504;52.870;8.798;2023-07-29T03:56:47;16.20;99.90
24384;DHT22;12504;52.870;8.798;2023-07-29T03:59:13;16.20;99.90
24384;DHT22;12504;52.870;8.798;2023-07-29T04:01:40;16.20;99.90
24384;DHT22;12504;52.870;8.798;2023-07-29T04:04:09;16.20;99.90
24384;DHT22;12504;52.870;8.798;2023-07-29T04:06:36;16.20;99.90
24384;DHT22;12504;52.870;8.798;2023-07-29T04:09:04;16.20;99.90
24384;DHT22;12504;52.870;8.798;2023-07-29T04:11:31;16.20;99.90
24384;DHT22;12504;52.870;8.798;2023-07-29T04:14:02;16.20;99.90
24384;DHT22;12504;52.870;8.798;2023-07-29T04:16:33;16.30;99.90
24384;DHT22;12504;52.870;8.798;2023-07-29T04:18:59;16.20;99.90
24384;DHT22;12504;52.870;8.798;2023-07-29T04:21:26;16.30;99.90
24384;DHT22;12504;52.870;8.798;2023-07-29T04:23:54;16.30;99.90
24384;DHT22;12504;52.870;8.798;2023-07-29T04:26:27;16.40;99.90
24384;DHT22;12504;52.870;8.798;2023-07-29T04:28:54;16.40;99.90
24384;DHT22;12504;52.870;8.798;2023-07-29T04:31:20;16.60;99.90
24384;DHT22;12504;52.870;8.798;2023-07-29T04:33:50;16.60;99.90
24384;DHT22;12504;52.870;8.798;2023-07-29T04:36:20;16.70;99.90
24384;DHT22;12504;52.870;8.798;2023-07-29T04:38:47;16.80;99.90
24384;DHT22;12504;52.870;8.798;2023-07-29T04:41:14;16.80;99.90
24384;DHT22;12504;52.870;8.798;2023-07-29T04:43:41;16.90;99.90
24384;DHT22;12504;52.870;8.798;2023-07-29T04:46:08;16.90;99.90
24384;DHT22;12504;52.870;8.798;2023-07-29T04:48:36;17.00;99.90
24384;DHT22;12504;52.870;8.798;2023-07-29T04:51:06;17.10;99.90
24384;DHT22;12504;52.870;8.798;2023-07-29T04:53:32;17.10;99.90
24384;DHT22;12504;52.870;8.798;2023-07-29T04:56:01;17.10;99.90
24384;DHT22;12504;52.870;8.798;2023-07-29T04:58:29;17.30;99.90
24384;DHT22;12504;52.870;8.798;2023-07-29T05:00:57;17.30;99.90
24384;DHT22;12504;52.870;8.798;2023-07-29T05:03:27;17.40;99.90
24384;DHT22;12504;52.870;8.798;2023-07-29T05:05:54;17.50;99.90
24384;DHT22;12504;52.870;8.798;2023-07-29T05:08:27;17.50;99.90
24384;DHT22;12504;52.870;8.798;2023-07-29T05:10:54;17.60;99.90
24384;DHT22;12504;52.870;8.798;2023-07-29T05:13:23;17.70;99.90
24384;DHT22;12504;52.870;8.798;2023-07-29T05:15:52;17.60;99.90
24384;DHT22;12504;52.870;8.798;2023-07-29T05:18:21;17.70;99.90
24384;DHT22;12504;52.870;8.798;2023-07-29T05:20:47;17.70;99.90
24384;DHT22;12504;52.870;8.798;2023-07-29T05:23:24;17.80;99.90
24384;DHT22;12504;52.870;8.798;2023-07-29T05:25:54;17.80;99.90
24384;DHT22;12504;52.870;8.798;2023-07-29T05:28:21;17.90;99.90
24384;DHT22;12504;52.870;8.798;2023-07-29T05:30:48;18.00;99.90
24384;DHT22;12504;52.870;8.798;2023-07-29T05:33:16;18.00;99.90
24384;DHT22;12504;52.870;8.798;2023-07-29T05:35:45;18.00;99.90
24384;DHT22;12504;52.870;8.798;2023-07-29T05:38:13;18.10;99.90
24384;DHT22;12504;52.870;8.798;2023-07-29T05:40:43;18.10;99.90
24384;DHT22;12504;52.870;8.798;2023-07-29T05:43:09;18.10;99.90
24384;DHT22;12504;52.870;8.798;2023-07-29T05:45:36;18.20;99.90
24384;DHT22;12504;52.870;8.798;2023-07-29T05:48:02;18.20;99.90
24384;DHT22;12504;52.870;8.798;2023-07-29T05:50:28;18.30;99.90
24384;DHT22;12504;52.870;8.798;2023-07-29T05:52:58;18.30;99.90
24384;DHT22;12504;52.870;8.798;2023-07-29T05:55:24;18.40;99.90
24384;DHT22;12504;52.870;8.798;2023-07-29T05:57:53;18.50;99.90
24384;DHT22;12504;52.870;8.798;2023-07-29T06:00:20;18.60;99.90
24384;DHT22;12504;52.870;8.798;2023-07-29T06:02:49;18.60;99.90
24384;DHT22;12504;52.870;8.798;2023-07-29T06:05:19;18.60;99.90
24384;DHT22;12504;52.870;8.798;2023-07-29T06:07:45;18.60;99.90
24384;DHT22;12504;52.870;8.798;2023-07-29T06:10:16;18.80;99.90
24384;DHT22;12504;52.870;8.798;2023-07-29T06:12:49;18.80;99.90
24384;DHT22;12504;52.870;8.798;2023-07-29T06:15:15;18.90;99.90
24384;DHT22;12504;52.870;8.798;2023-07-29T06:17:51;18.90;99.90
24384;DHT22;12504;52.870;8.798;2023-07-29T06:20:17;19.00;99.90
24384;DHT22;12504;52.870;8.798;2023-07-29T06:22:43;19.00;99.90
24384;DHT22;12504;52.870;8.798;2023-07-29T06:25:10;19.00;99.90
24384;DHT22;12504;52.870;8.798;2023-07-29T06:27:36;19.00;99.90
24384;DHT22;12504;52.870;8.798;2023-07-29T06:30:05;19.00;99.90
24384;DHT22;12504;52.870;8.798;2023-07-29T06:32:31;19.00;99.90
24384;DHT22;12504;52.870;8.798;2023-07-29T06:35:05;19.00;99.90
24384;DHT22;12504;52.870;8.798;2023-07-29T06:37:31;19.00;99.90
24384;DHT22;12504;52.870;8.798;2023-07-29T06:39:59;19.00;99.90
24384;DHT22;12504;52.870;8.798;2023-07-29T06:42:25;19.10;99.90
24384;DHT22;12504;52.870;8.798;2023-07-29T06:44:51;19.10;99.90
24384;DHT22;12504;52.870;8.798;2023-07-29T06:47:17;19.10;99.90
24384;DHT22;12504;52.870;8.798;2023-07-29T06:49:43;19.10;99.90
24384;DHT22;12504;52.870;8.798;2023-07-29T06:52:12;19.10;99.90
24384;DHT22;12504;52.870;8.798;2023-07-29T06:54:40;19.10;99.90
24384;DHT22;12504;52.870;8.798;2023-07-29T06:57:06;19.00;99.90
24384;DHT22;12504;52.870;8.798;2023-07-29T06:59:36;19.00;99.90
24384;DHT22;12504;52.870;8.798;2023-07-29T07:02:02;19.20;99.90
24384;DHT22;12504;52.870;8.798;2023-07-29T07:04:31;19.20;99.90
24384;DHT22;12504;52.870;8.798;2023-07-29T07:07:00;19.30;99.90
24384;DHT22;12504;52.870;8.798;2023-07-29T07:09:29;19.40;99.90
24384;DHT22;12504;52.870;8.798;2023-07-29T07:11:55;19.60;99.90
24384;DHT22;12504;52.870;8.798;2023-07-29T07:14:24;19.60;99.90
24384;DHT22;12504;52.870;8.798;2023-07-29T07:16:50;19.70;99.90
24384;DHT22;12504;52.870;8.798;2023-07-29T07:19:25;19.70;99.90
24384;DHT22;12504;52.870;8.798;2023-07-29T07:21:51;19.70;99.90
24384;DHT22;12504;52.870;8.798;2023-07-29T07:24:22;19.70;99.90
24384;DHT22;12504;52.870;8.798;2023-07-29T07:26:51;19.60;99.90
24384;DHT22;12504;52.870;8.798;2023-07-29T07:29:16;19.70;99.90
24384;DHT22;12504;52.870;8.798;2023-07-29T07:31:53;19.60;99.90
24384;DHT22;12504;52.870;8.798;2023-07-29T07:34:22;19.60;99.90
24384;DHT22;12504;52.870;8.798;2023-07-29T07:36:51;19.70;99.90
24384;DHT22;12504;52.870;8.798;2023-07-29T07:39:20;19.80;99.90
24384;DHT22;12504;52.870;8.798;2023-07-29T07:41:50;19.60;99.90
24384;DHT22;12504;52.870;8.798;2023-07-29T07:44:24;19.60;99.90
24384;DHT22;12504;52.870;8.798;2023-07-29T07:46:52;19.50;99.90
24384;DHT22;12504;52.870;8.798;2023-07-29T07:49:19;19.60;99.90
24384;DHT22;12504;52.870;8.798;2023-07-29T07:51:47;19.60;99.90
24384;DHT22;12504;52.870;8.798;2023-07-29T07:54:13;19.60;99.90
24384;DHT22;12504;52.870;8.798;2023-07-29T07:56:39;19.70;99.90
24384;DHT22;12504;52.870;8.798;2023-07-29T07:59:11;19.70;99.90
24384;DHT22;12504;52.870;8.798;2023-07-29T08:01:39;19.90;99.90
24384;DHT22;12504;52.870;8.798;2023-07-29T08:04:09;19.90;99.90
24384;DHT22;12504;52.870;8.798;2023-07-29T08:06:35;20.00;99.90
24384;DHT22;12504;52.870;8.798;2023-07-29T08:09:01;20.10;99.90
24384;DHT22;12504;52.870;8.798;2023-07-29T08:11:32;20.30;99.90
24384;DHT22;12504;52.870;8.798;2023-07-29T08:13:59;20.40;99.90
24384;DHT22;12504;52.870;8.798;2023-07-29T08:16:31;20.40;99.90
24384;DHT22;12504;52.870;8.798;2023-07-29T08:18:59;20.40;99.90
24384;DHT22;12504;52.870;8.798;2023-07-29T08:21:26;20.50;99.90
24384;DHT22;12504;52.870;8.798;2023-07-29T08:23:55;20.60;99.90
24384;DHT22;12504;52.870;8.798;2023-07-29T08:26:20;20.70;99.90
24384;DHT22;12504;52.870;8.798;2023-07-29T08:28:50;20.80;99.90
24384;DHT22;12504;52.870;8.798;2023-07-29T08:31:16;21.00;99.90
24384;DHT22;12504;52.870;8.798;2023-07-29T08:33:42;21.20;99.90
24384;DHT22;12504;52.870;8.798;2023-07-29T08:36:11;21.20;99.90
24384;DHT22;12504;52.870;8.798;2023-07-29T08:38:40;21.40;99.90
24384;DHT22;12504;52.870;8.798;2023-07-29T08:44:06;21.30;99.90
24384;DHT22;12504;52.870;8.798;2023-07-29T08:46:39;21.00;99.90
24384;DHT22;12504;52.870;8.798;2023-07-29T08:49:12;20.80;99.90
24384;DHT22;12504;52.870;8.798;2023-07-29T08:51:47;20.70;99.90
24384;DHT22;12504;52.870;8.798;2023-07-29T08:54:14;20.80;99.90
24384;DHT22;12504;52.870;8.798;2023-07-29T08:56:43;21.10;99.90
24384;DHT22;12504;52.870;8.798;2023-07-29T08:59:10;21.20;99.90
24384;DHT22;12504;52.870;8.798;2023-07-29T09:01:41;21.20;99.90
24384;DHT22;12504;52.870;8.798;2023-07-29T09:04:10;21.30;99.90
24384;DHT22;12504;52.870;8.798;2023-07-29T09:06:39;21.40;99.90
24384;DHT22;12504;52.870;8.798;2023-07-29T09:09:08;21.50;99.90
24384;DHT22;12504;52.870;8.798;2023-07-29T09:11:35;21.50;99.90
24384;DHT22;12504;52.870;8.798;2023-07-29T09:14:06;21.50;99.90
24384;DHT22;12504;52.870;8.798;2023-07-29T09:16:50;21.80;99.90
24384;DHT22;12504;52.870;8.798;2023-07-29T09:19:19;22.00;99.90
24384;DHT22;12504;52.870;8.798;2023-07-29T09:21:46;22.00;99.90
24384;DHT22;12504;52.870;8.798;2023-07-29T09:24:16;21.90;99.90
24384;DHT22;12504;52.870;8.798;2023-07-29T09:26:49;21.70;99.90
24384;DHT22;12504;52.870;8.798;2023-07-29T09:29:22;21.50;99.90
24384;DHT22;12504;52.870;8.798;2023-07-29T09:31:48;21.40;99.90
24384;DHT22;12504;52.870;8.798;2023-07-29T09:34:15;21.30;99.90
24384;DHT22;12504;52.870;8.798;2023-07-29T09:36:45;21.30;99.90
24384;DHT22;12504;52.870;8.798;2023-07-29T09:39:14;21.20;99.90
24384;DHT22;12504;52.870;8.798;2023-07-29T09:41:47;21.00;99.90
24384;DHT22;12504;52.870;8.798;2023-07-29T09:44:15;21.10;99.90
24384;DHT22;12504;52.870;8.798;2023-07-29T09:46:46;21.50;99.90
24384;DHT22;12504;52.870;8.798;2023-07-29T09:49:18;21.80;99.90
24384;DHT22;12504;52.870;8.798;2023-07-29T09:51:47;21.90;99.90
24384;DHT22;12504;52.870;8.798;2023-07-29T09:54:19;21.80;99.90
24384;DHT22;12504;52.870;8.798;2023-07-29T09:56:47;21.90;99.90
24384;DHT22;12504;52.870;8.798;2023-07-29T09:59:18;22.00;99.90
24384;DHT22;12504;52.870;8.798;2023-07-29T10:01:50;22.30;99.90
24384;DHT22;12504;52.870;8.798;2023-07-29T10:04:20;22.70;99.90
24384;DHT22;12504;52.870;8.798;2023-07-29T10:06:46;23.10;99.90
24384;DHT22;12504;52.870;8.798;2023-07-29T10:09:15;23.20;99.90
24384;DHT22;12504;52.870;8.798;2023-07-29T10:11:42;23.10;99.90
24384;DHT22;12504;52.870;8.798;2023-07-29T10:14:09;22.90;99.90
24384;DHT22;12504;52.870;8.798;2023-07-29T10:16:36;23.00;99.90
24384;DHT22;12504;52.870;8.798;2023-07-29T10:19:07;23.10;99.90
24384;DHT22;12504;52.870;8.798;2023-07-29T10:21:39;23.10;99.90
24384;DHT22;12504;52.870;8.798;2023-07-29T10:24:11;23.10;99.90
24384;DHT22;12504;52.870;8.798;2023-07-29T10:26:46;23.00;99.90
24384;DHT22;12504;52.870;8.798;2023-07-29T10:29:20;22.80;99.90
24384;DHT22;12504;52.870;8.798;2023-07-29T10:31:52;22.80;99.90
24384;DHT22;12504;52.870;8.798;2023-07-29T10:34:25;22.70;99.90
24384;DHT22;12504;52.870;8.798;2023-07-29T10:36:51;22.70;99.90
24384;DHT22;12504;52.870;8.798;2023-07-29T10:39:18;22.80;99.90
24384;DHT22;12504;52.870;8.798;2023-07-29T10:42:03;22.80;99.90
24384;DHT22;12504;52.870;8.798;2023-07-29T10:47:15;22.20;99.90
24384;DHT22;12504;52.870;8.798;2023-07-29T10:50:01;22.00;99.90
24384;DHT22;12504;52.870;8.798;2023-07-29T10:55:25;21.90;99.90
24384;DHT22;12504;52.870;8.798;2023-07-29T10:57:54;22.40;99.90
24384;DHT22;12504;52.870;8.798;2023-07-29T11:00:35;22.70;99.90
24384;DHT22;12504;52.870;8.798;2023-07-29T11:03:13;23.00;99.90
24384;DHT22;12504;52.870;8.798;2023-07-29T11:05:51;23.40;99.90
24384;DHT22;12504;52.870;8.798;2023-07-29T11:08:20;23.90;99.90
24384;DHT22;12504;52.870;8.798;2023-07-29T11:11:05;24.30;99.90
24384;DHT22;12504;52.870;8.798;2023-07-29T11:13:35;24.50;99.90
24384;DHT22;12504;52.870;8.798;2023-07-29T11:16:02;24.90;99.90
24384;DHT22;12504;52.870;8.798;2023-07-29T11:18:29;25.30;99.90
24384;DHT22;12504;52.870;8.798;2023-07-29T11:21:01;25.10;99.90
24384;DHT22;12504;52.870;8.798;2023-07-29T11:23:37;25.20;99.90
24384;DHT22;12504;52.870;8.798;2023-07-29T11:26:06;25.70;99.90
24384;DHT22;12504;52.870;8.798;2023-07-29T11:28:39;25.70;99.90
24384;DHT22;12504;52.870;8.798;2023-07-29T11:31:08;25.90;99.90
24384;DHT22;12504;52.870;8.798;2023-07-29T11:33:34;25.00;99.90
24384;DHT22;12504;52.870;8.798;2023-07-29T11:36:00;24.80;99.90
24384;DHT22;12504;52.870;8.798;2023-07-29T11:38:26;25.70;99.90
24384;DHT22;12504;52.870;8.798;2023-07-29T11:41:00;26.00;99.90
24384;DHT22;12504;52.870;8.798;2023-07-29T11:43:30;25.60;99.90
24384;DHT22;12504;52.870;8.798;2023-07-29T11:46:01;24.90;99.90
24384;DHT22;12504;52.870;8.798;2023-07-29T11:48:33;24.30;99.90
24384;DHT22;12504;52.870;8.798;2023-07-29T11:51:01;24.40;99.90
24384;DHT22;12504;52.870;8.798;2023-07-29T11:53:29;24.90;99.90
24384;DHT22;12504;52.870;8.798;2023-07-29T11:55:57;25.80;99.90
24384;DHT22;12504;52.870;8.798;2023-07-29T11:58:29;26.90;99.90
24384;DHT22;12504;52.870;8.798;2023-07-29T12:00:58;27.30;99.90
24384;DHT22;12504;52.870;8.798;2023-07-29T12:03:30;28.20;99.90
24384;DHT22;12504;52.870;8.798;2023-07-29T12:05:56;28.50;99.90
24384;DHT22;12504;52.870;8.798;2023-07-29T12:08:29;28.60;99.90
24384;DHT22;12504;52.870;8.798;2023-07-29T12:10:55;28.80;99.90
24384;DHT22;12504;52.870;8.798;2023-07-29T12:13:24;28.90;99.90
24384;DHT22;12504;52.870;8.798;2023-07-29T12:16:01;28.40;99.90
24384;DHT22;12504;52.870;8.798;2023-07-29T12:18:31;28.50;99.90
24384;DHT22;12504;52.870;8.798;2023-07-29T12:21:06;29.10;99.90
24384;DHT22;12504;52.870;8.798;2023-07-29T12:23:32;29.20;99.90
24384;DHT22;12504;52.870;8.798;2023-07-29T12:26:00;29.50;99.90
24384;DHT22;12504;52.870;8.798;2023-07-29T12:28:28;29.60;99.90
24384;DHT22;12504;52.870;8.798;2023-07-29T12:30:55;29.90;99.90
24384;DHT22;12504;52.870;8.798;2023-07-29T12:33:36;30.20;99.90
24384;DHT22;12504;52.870;8.798;2023-07-29T12:36:05;30.60;99.90
24384;DHT22;12504;52.870;8.798;2023-07-29T12:38:31;30.40;99.90
24384;DHT22;12504;52.870;8.798;2023-07-29T12:40:59;29.50;99.90
24384;DHT22;12504;52.870;8.798;2023-07-29T12:43:25;28.90;99.90
24384;DHT22;12504;52.870;8.798;2023-07-29T12:45:57;29.00;99.90
24384;DHT22;12504;52.870;8.798;2023-07-29T12:48:23;29.10;99.90
24384;DHT22;12504;52.870;8.798;2023-07-29T12:50:52;29.50;99.90
24384;DHT22;12504;52.870;8.798;2023-07-29T12:53:21;29.90;99.90
24384;DHT22;12504;52.870;8.798;2023-07-29T12:55:49;30.00;99.90
24384;DHT22;12504;52.870;8.798;2023-07-29T12:58:18;30.10;99.90
24384;DHT22;12504;52.870;8.798;2023-07-29T13:00:49;29.80;99.90
24384;DHT22;12504;52.870;8.798;2023-07-29T13:03:18;29.70;99.90
24384;DHT22;12504;52.870;8.798;2023-07-29T13:05:47;29.50;99.90
24384;DHT22;12504;52.870;8.798;2023-07-29T13:08:15;29.60;99.90
24384;DHT22;12504;52.870;8.798;2023-07-29T13:10:44;28.90;99.90
24384;DHT22;12504;52.870;8.798;2023-07-29T13:13:13;27.80;99.90
24384;DHT22;12504;52.870;8.798;2023-07-29T13:15:40;26.90;99.90
24384;DHT22;12504;52.870;8.798;2023-07-29T13:18:06;26.30;99.90
24384;DHT22;12504;52.870;8.798;2023-07-29T13:20:35;26.10;99.90
24384;DHT22;12504;52.870;8.798;2023-07-29T13:23:09;26.80;99.90
24384;DHT22;12504;52.870;8.798;2023-07-29T13:25:38;26.70;99.90
24384;DHT22;12504;52.870;8.798;2023-07-29T13:28:08;26.40;99.90
24384;DHT22;12504;52.870;8.798;2023-07-29T13:30:34;25.80;99.90
24384;DHT22;12504;52.870;8.798;2023-07-29T13:33:00;25.40;99.90
24384;DHT22;12504;52.870;8.798;2023-07-29T13:35:25;25.40;99.90
24384;DHT22;12504;52.870;8.798;2023-07-29T13:37:54;25.90;99.90
24384;DHT22;12504;52.870;8.798;2023-07-29T13:40:22;26.60;99.90
24384;DHT22;12504;52.870;8.798;2023-07-29T13:42:48;26.90;99.90
24384;DHT22;12504;52.870;8.798;2023-07-29T13:45:20;27.20;99.90
24384;DHT22;12504;52.870;8.798;2023-07-29T13:47:46;26.90;99.90
24384;DHT22;12504;52.870;8.798;2023-07-29T13:50:16;26.30;99.90
24384;DHT22;12504;52.870;8.798;2023-07-29T13:52:46;25.70;99.90
24384;DHT22;12504;52.870;8.798;2023-07-29T13:55:16;25.50;99.90
24384;DHT22;12504;52.870;8.798;2023-07-29T13:57:44;25.70;99.90
24384;DHT22;12504;52.870;8.798;2023-07-29T14:00:13;25.60;99.90
24384;DHT22;12504;52.870;8.798;2023-07-29T14:02:45;25.60;99.90
24384;DHT22;12504;52.870;8.798;2023-07-29T14:05:15;25.70;99.90
24384;DHT22;12504;52.870;8.798;2023-07-29T14:07:42;26.30;99.90
24384;DHT22;12504;52.870;8.798;2023-07-29T14:10:08;26.80;99.90
24384;DHT22;12504;52.870;8.798;2023-07-29T14:12:35;27.40;99.90
24384;DHT22;12504;52.870;8.798;2023-07-29T14:15:05;27.70;99.90
24384;DHT22;12504;52.870;8.798;2023-07-29T14:17:37;28.00;99.90
24384;DHT22;12504;52.870;8.798;2023-07-29T14:20:03;27.80;99.90
24384;DHT22;12504;52.870;8.798;2023-07-29T14:22:33;27.40;99.90
24384;DHT22;12504;52.870;8.798;2023-07-29T14:25:02;27.10;99.90
24384;DHT22;12504;52.870;8.798;2023-07-29T14:27:28;27.00;99.90
24384;DHT22;12504;52.870;8.798;2023-07-29T14:29:57;26.90;99.90
24384;DHT22;12504;52.870;8.798;2023-07-29T14:32:23;26.20;99.90
24384;DHT22;12504;52.870;8.798;2023-07-29T14:34:50;26.10;99.90
24384;DHT22;12504;52.870;8.798;2023-07-29T14:37:20;26.30;99.90
24384;DHT22;12504;52.870;8.798;2023-07-29T14:39:46;26.50;99.90
24384;DHT22;12504;52.870;8.798;2023-07-29T14:42:12;26.00;99.90
24384;DHT22;12504;52.870;8.798;2023-07-29T14:44:39;25.90;99.90
24384;DHT22;12504;52.870;8.798;2023-07-29T14:47:08;26.20;99.90
24384;DHT22;12504;52.870;8.798;2023-07-29T14:49:39;26.40;99.90
24384;DHT22;12504;52.870;8.798;2023-07-29T14:52:06;26.80;99.90
24384;DHT22;12504;52.870;8.798;2023-07-29T14:54:32;27.00;99.90
24384;DHT22;12504;52.870;8.798;2023-07-29T14:57:02;27.20;99.90
24384;DHT22;12504;52.870;8.798;2023-07-29T14:59:28;27.40;99.90
24384;DHT22;12504;52.870;8.798;2023-07-29T15:01:54;27.40;99.90
24384;DHT22;12504;52.870;8.798;2023-07-29T15:04:23;27.40;99.90
24384;DHT22;12504;52.870;8.798;2023-07-29T15:06:49;27.70;99.90
24384;DHT22;12504;52.870;8.798;2023-07-29T15:09:16;27.60;99.90
24384;DHT22;12504;52.870;8.798;2023-07-29T15:11:42;27.10;99.90
24384;DHT22;12504;52.870;8.798;2023-07-29T15:14:08;26.80;99.90
24384;DHT22;12504;52.870;8.798;2023-07-29T15:16:36;26.60;99.90
24384;DHT22;12504;52.870;8.798;2023-07-29T15:19:10;26.60;99.90
24384;DHT22;12504;52.870;8.798;2023-07-29T15:21:40;26.80;99.90
24384;DHT22;12504;52.870;8.798;2023-07-29T15:24:10;26.30;99.90
24384;DHT22;12504;52.870;8.798;2023-07-29T15:26:37;26.00;99.90
24384;DHT22;12504;52.870;8.798;2023-07-29T15:29:05;25.50;99.90
24384;DHT22;12504;52.870;8.798;2023-07-29T15:31:35;25.40;99.90
24384;DHT22;12504;52.870;8.798;2023-07-29T15:34:04;25.40;99.90
24384;DHT22;12504;52.870;8.798;2023-07-29T15:36:30;25.50;99.90
24384;DHT22;12504;52.870;8.798;2023-07-29T15:38:59;25.50;99.90
24384;DHT22;12504;52.870;8.798;2023-07-29T15:41:35;25.60;99.90
24384;DHT22;12504;52.870;8.798;2023-07-29T15:44:01;25.80;99.90
24384;DHT22;12504;52.870;8.798;2023-07-29T15:46:28;25.90;99.90
24384;DHT22;12504;52.870;8.798;2023-07-29T15:48:54;25.80;99.90
24384;DHT22;12504;52.870;8.798;2023-07-29T15:51:27;25.80;99.90